FredonyerEastRWIS Atmospheric Data: 01/13/2021 Summary  Detailed Graphs  Station List

  Temperature     Wind Precipitation Visibility
Timestamp Air Wet
Bulb
Dew-
point
24-hr
Max
24-hr
Min
Relative
Humidity
Atmospheric
Pressure
Avg
Speed
Avg
Dir
Spot
Speed
Spot
Dir
Max
Speed
Max
Dir
  Rate Situation Start End 1 hr 3 hr 6 hr 12 hr 24 hr   Situation
Date Time °F °F °F °F °F % in Hg mph ° mph ° mph ° Y/N in/hr text Date Time Date Time in in in in in mi text
01/13/2021 12:09 AM 40.82 39.92 38.48 46.22 28.40 91.0 Not Reported 5.14 NW 4.25 SW 8.05 NE No 0.000 No Precipitation 01/08/2021 11:00 AM 01/08/2021 11:05 AM 0.000 0.000 0.000 0.000 0.000 Not Reported Not Reported
01/13/2021 12:23 AM 41.00 39.92 38.48 46.22 28.40 90.0 Not Reported 4.92 NW 6.49 SW 10.51 SW No 0.000 No Precipitation 01/08/2021 11:00 AM 01/08/2021 11:05 AM 0.000 0.000 0.000 0.000 0.000 Not Reported Not Reported
01/13/2021 12:39 AM 41.18 40.10 38.66 46.22 28.40 90.0 Not Reported 6.04 SW 2.68 W 8.50 W No 0.000 No Precipitation 01/08/2021 11:00 AM 01/08/2021 11:05 AM 0.000 0.000 0.000 0.000 0.000 Not Reported Not Reported
01/13/2021 12:53 AM 41.54 40.10 38.66 46.22 28.40 89.0 Not Reported 6.49 W 6.04 S 8.28 S No 0.000 No Precipitation 01/08/2021 11:00 AM 01/08/2021 11:05 AM 0.000 0.000 0.000 0.000 0.000 Not Reported Not Reported
01/13/2021 01:08 AM 41.18 39.92 38.48 46.22 28.40 89.0 Not Reported 4.47 SE 7.61 S 9.62 S No 0.000 No Precipitation 01/08/2021 11:00 AM 01/08/2021 11:05 AM 0.000 0.000 0.000 0.000 0.000 Not Reported Not Reported
01/13/2021 01:24 AM 41.00 39.92 38.30 46.22 29.12 90.0 Not Reported 6.26 NW 9.40 S 9.40 W No 0.000 No Precipitation 01/08/2021 11:00 AM 01/08/2021 11:05 AM 0.000 0.000 0.000 0.000 0.000 Not Reported Not Reported
01/13/2021 01:40 AM 41.00 39.74 38.30 46.22 34.34 90.0 Not Reported 5.59 SW 4.70 S 8.50 SW No 0.000 No Precipitation 01/08/2021 11:00 AM 01/08/2021 11:05 AM 0.000 0.000 0.000 0.000 0.000 Not Reported Not Reported
01/13/2021 01:53 AM 40.82 39.74 38.48 46.22 34.34 91.0 Not Reported 4.92 W 4.92 SW 7.83 SW No 0.000 No Precipitation 01/08/2021 11:00 AM 01/08/2021 11:05 AM 0.000 0.000 0.000 0.000 0.000 Not Reported Not Reported
01/13/2021 02:08 AM 40.64 39.56 38.48 46.22 34.34 92.0 Not Reported 4.92 W 6.04 S 9.17 S No 0.000 No Precipitation 01/08/2021 11:00 AM 01/08/2021 11:05 AM 0.000 0.000 0.000 0.000 0.000 Not Reported Not Reported
01/13/2021 02:23 AM 41.00 39.92 38.66 46.22 34.34 91.0 Not Reported 8.72 SW 4.03 N 12.08 SW No 0.000 No Precipitation 01/08/2021 11:00 AM 01/08/2021 11:05 AM 0.000 0.000 0.000 0.000 0.000 Not Reported Not Reported
01/13/2021 02:40 AM 41.18 40.10 39.02 46.22 34.34 92.0 Not Reported 4.92 W 9.40 SW 9.40 SW No 0.000 No Precipitation 01/08/2021 11:00 AM 01/08/2021 11:05 AM 0.000 0.000 0.000 0.000 0.000 Not Reported Not Reported
01/13/2021 02:53 AM 40.82 39.92 39.02 46.22 34.34 92.0 Not Reported 4.47 W 7.83 S 10.29 S No 0.000 No Precipitation 01/08/2021 11:00 AM 01/08/2021 11:05 AM 0.000 0.000 0.000 0.000 0.000 Not Reported Not Reported
01/13/2021 03:09 AM 41.36 40.46 39.38 46.22 34.34 92.0 Not Reported 4.47 SW 4.47 W 10.51 S No 0.000 No Precipitation 01/08/2021 11:00 AM 01/08/2021 11:05 AM 0.000 0.000 0.000 0.000 0.000 Not Reported Not Reported
01/13/2021 03:23 AM 41.36 40.46 39.38 46.22 34.34 93.0 Not Reported 5.82 SW 2.24 S 9.40 SE No 0.000 No Precipitation 01/08/2021 11:00 AM 01/08/2021 11:05 AM 0.000 0.000 0.000 0.000 0.000 Not Reported Not Reported
01/13/2021 03:39 AM 41.54 40.64 39.74 46.22 34.34 93.0 Not Reported 5.14 S 12.30 SW 12.30 SW No 0.000 No Precipitation 01/13/2021 02:24 AM 01/13/2021 02:29 AM 0.004 0.004 0.004 0.004 0.004 Not Reported Not Reported
01/13/2021 03:53 AM 41.72 40.64 39.56 46.22 34.34 92.0 Not Reported 6.04 SW 3.13 SW 9.62 S No 0.000 No Precipitation 01/13/2021 02:24 AM 01/13/2021 02:29 AM 0.004 0.004 0.004 0.004 0.004 Not Reported Not Reported
01/13/2021 04:09 AM 42.26 41.36 39.92 46.22 34.34 91.0 Not Reported 6.04 W 6.04 W 10.51 SW No 0.000 No Precipitation 01/13/2021 02:24 AM 01/13/2021 02:29 AM 0.004 0.004 0.004 0.004 0.004 Not Reported Not Reported
01/13/2021 04:23 AM 42.26 41.18 39.92 46.22 34.34 91.0 Not Reported 5.82 SW 6.93 SE 9.17 W No 0.000 No Precipitation 01/13/2021 02:24 AM 01/13/2021 02:29 AM 0.004 0.004 0.004 0.004 0.004 Not Reported Not Reported
01/13/2021 04:39 AM 41.90 40.82 40.10 46.22 34.34 93.0 Not Reported 5.59 SW 6.49 SW 9.62 SW No 0.000 No Precipitation 01/13/2021 02:24 AM 01/13/2021 02:29 AM 0.000 0.004 0.004 0.004 0.004 Not Reported Not Reported
01/13/2021 04:55 AM 41.36 40.64 39.74 46.22 34.34 94.0 Not Reported 2.24 NW 2.68 SE 9.17 S No 0.000 No Precipitation 01/13/2021 02:24 AM 01/13/2021 02:29 AM 0.000 0.004 0.004 0.004 0.004 Not Reported Not Reported
01/13/2021 05:09 AM 41.54 41.36 40.28 46.22 34.34 95.0 Not Reported 3.58 W 4.70 S 6.04 W Yes 0.043 Rain Slight 01/13/2021 04:08 AM   0.004 0.008 0.008 0.008 0.008 Not Reported Not Reported
01/13/2021 05:23 AM 38.12 37.76 37.40 46.22 34.34 96.0 Not Reported 1.57 W 2.24 W 3.80 NW No 0.000 No Precipitation 01/13/2021 04:08 AM 01/13/2021 04:13 AM 0.004 0.008 0.008 0.008 0.008 Not Reported Not Reported
01/13/2021 05:38 AM 39.92 39.74 39.56 46.22 34.34 98.0 Not Reported 2.68 W 3.13 W 5.14 NW No 0.000 No Precipitation 01/13/2021 04:08 AM 01/13/2021 04:13 AM 0.004 0.008 0.008 0.008 0.008 Not Reported Not Reported
01/13/2021 05:54 AM 40.28 39.92 39.74 46.22 34.34 98.0 Not Reported 3.36 W 2.91 NW 5.82 NW No 0.000 No Precipitation 01/13/2021 04:08 AM 01/13/2021 04:13 AM 0.004 0.008 0.008 0.008 0.008 Not Reported Not Reported
01/13/2021 06:09 AM 40.64 40.46 40.46 46.22 35.06 99.0 Not Reported 2.91 W 2.68 SW 5.14 NW No 0.000 No Precipitation 01/13/2021 04:58 AM 01/13/2021 05:03 AM 0.004 0.008 0.008 0.008 0.008 Not Reported Not Reported
01/13/2021 06:25 AM 41.54 41.36 41.18 46.22 35.06 98.0 Not Reported 1.57 W 2.91 NW 7.38 SW No 0.000 No Precipitation 01/13/2021 05:17 AM 01/13/2021 05:22 AM 0.008 0.008 0.016 0.016 0.016 Not Reported Not Reported
01/13/2021 06:39 AM 40.46 40.28 40.10 46.22 35.06 98.0 Not Reported 2.68 NW 2.91 NW 4.25 SW No 0.000 No Precipitation 01/13/2021 05:30 AM 01/13/2021 05:35 AM 0.008 0.016 0.020 0.020 0.020 Not Reported Not Reported
01/13/2021 06:54 AM 42.98 42.62 42.62 46.22 35.06 98.0 Not Reported 4.47 NW 1.79 W 8.72 NW Yes 0.043 Rain Slight 01/13/2021 05:49 AM   0.020 0.020 0.028 0.028 0.028 Not Reported Not Reported
01/13/2021 07:09 AM 42.80 41.72 42.26 46.22 35.06 98.0 Not Reported 4.25 W 4.03 NW 6.26 SW Yes 0.043 Rain Slight 01/13/2021 06:07 AM   0.020 0.031 0.035 0.035 0.035 Not Reported Not Reported
01/13/2021 07:23 AM 40.28 39.92 39.56 46.22 35.06 97.0 Not Reported 2.46 W 1.57 W 4.03 SW No 0.000 No Precipitation 01/13/2021 06:07 AM 01/13/2021 06:12 AM 0.020 0.031 0.035 0.035 0.035 Not Reported Not Reported
01/13/2021 07:38 AM 40.46 40.46 40.28 46.22 35.06 99.0 Not Reported 2.68 W 2.01 W 4.47 W No 0.000 No Precipitation 01/13/2021 06:31 AM 01/13/2021 06:36 AM 0.020 0.035 0.039 0.039 0.039 Not Reported Not Reported
01/13/2021 07:53 AM 41.54 41.54 41.54 46.22 35.06 99.0 Not Reported 4.25 W 5.37 SW 5.82 NW No 0.000 No Precipitation 01/13/2021 06:31 AM 01/13/2021 06:36 AM 0.008 0.035 0.039 0.039 0.039 Not Reported Not Reported
01/13/2021 08:09 AM 41.90 42.26 41.54 46.22 35.06 98.0 Not Reported 3.58 W 5.37 W 6.71 NW No 0.000 No Precipitation 01/13/2021 06:31 AM 01/13/2021 06:36 AM 0.004 0.031 0.039 0.039 0.039 Not Reported Not Reported
01/13/2021 08:24 AM 44.42 43.70 42.98 46.22 35.06 95.0 Not Reported 3.80 NW 4.25 W 6.93 SW No 0.000 No Precipitation 01/13/2021 06:31 AM 01/13/2021 06:36 AM 0.004 0.031 0.039 0.039 0.039 Not Reported Not Reported
01/13/2021 08:39 AM 45.50 44.60 43.70 46.22 35.06 93.0 Not Reported 3.80 W 2.24 NE 7.61 W No 0.000 No Precipitation 01/13/2021 06:31 AM 01/13/2021 06:36 AM 0.000 0.031 0.039 0.039 0.039 Not Reported Not Reported
01/13/2021 08:53 AM 45.32 44.42 43.34 46.22 35.06 92.0 Not Reported 4.03 SW 2.91 SW 6.04 S No 0.000 No Precipitation 01/13/2021 06:31 AM 01/13/2021 06:36 AM 0.000 0.031 0.039 0.039 0.039 Not Reported Not Reported
01/13/2021 09:08 AM 45.86 44.60 43.52 46.22 35.06 91.0 Not Reported 4.03 S 0.45 NW 6.04 NW No 0.000 No Precipitation 01/13/2021 06:31 AM 01/13/2021 06:36 AM 0.000 0.028 0.039 0.039 0.039 Not Reported Not Reported
01/13/2021 09:24 AM 47.12 45.50 43.52 47.12 35.06 87.0 Not Reported 2.91 SW 1.12 S 5.82 S No 0.000 No Precipitation 01/13/2021 06:31 AM 01/13/2021 06:36 AM 0.000 0.020 0.039 0.039 0.039 Not Reported Not Reported
01/13/2021 09:40 AM 48.74 46.04 43.34 48.74 35.06 81.0 Not Reported 0.67 W 2.91 E 5.14 W No 0.000 No Precipitation 01/13/2021 06:31 AM 01/13/2021 06:36 AM 0.000 0.020 0.035 0.039 0.039 Not Reported Not Reported
01/13/2021 09:55 AM 48.38 46.22 43.52 49.10 35.06 83.0 Not Reported 4.25 SE 1.12 SE 4.70 SE No 0.000 No Precipitation 01/13/2021 06:31 AM 01/13/2021 06:36 AM 0.000 0.008 0.035 0.039 0.039 Not Reported Not Reported
01/13/2021 10:08 AM 46.04 44.78 43.52 49.10 35.06 90.0 Not Reported 1.57 NW 0.45 NW 5.82 N No 0.000 No Precipitation 01/13/2021 06:31 AM 01/13/2021 06:36 AM 0.000 0.004 0.035 0.039 0.039 Not Reported Not Reported
01/13/2021 10:23 AM 45.32 44.24 43.16 49.10 35.06 92.0 Not Reported 1.79 W 2.01 NW 4.92 S No 0.000 No Precipitation 01/13/2021 06:31 AM 01/13/2021 06:36 AM 0.000 0.004 0.035 0.039 0.039 Not Reported Not Reported
01/13/2021 10:38 AM 45.86 44.96 44.24 49.10 35.06 93.0 Not Reported 2.91 SW 2.68 W 3.80 S No 0.000 No Precipitation 01/13/2021 06:31 AM 01/13/2021 06:36 AM 0.000 0.000 0.035 0.039 0.039 Not Reported Not Reported
01/13/2021 10:54 AM 46.58 45.14 43.70 49.10 35.06 89.0 Not Reported 6.71 SW 4.25 SW 7.61 S No 0.000 No Precipitation 01/13/2021 06:31 AM 01/13/2021 06:36 AM 0.000 0.000 0.035 0.039 0.039 Not Reported Not Reported
01/13/2021 11:08 AM 47.84 45.86 43.88 49.10 35.06 86.0 Not Reported 5.14 SW 3.80 W 8.50 S No 0.000 No Precipitation 01/13/2021 06:31 AM 01/13/2021 06:36 AM 0.000 0.000 0.031 0.039 0.039 Not Reported Not Reported
01/13/2021 11:23 AM 48.02 45.86 43.70 49.10 35.06 84.0 Not Reported 4.92 SW 7.16 SW 7.83 S No 0.000 No Precipitation 01/13/2021 06:31 AM 01/13/2021 06:36 AM 0.000 0.000 0.031 0.039 0.039 Not Reported Not Reported
01/13/2021 11:40 AM 46.94 45.32 43.52 49.10 35.06 87.0 Not Reported 6.26 SW 6.26 W 9.17 SW No 0.000 No Precipitation 01/13/2021 06:31 AM 01/13/2021 06:36 AM 0.000 0.000 0.031 0.039 0.039 Not Reported Not Reported
01/13/2021 11:54 AM 48.02 46.04 43.70 49.10 35.06 84.0 Not Reported 6.49 W 2.68 S 9.17 SW No 0.000 No Precipitation 01/13/2021 06:31 AM 01/13/2021 06:36 AM 0.000 0.000 0.031 0.039 0.039 Not Reported Not Reported
01/13/2021 12:08 PM 48.38 46.04 43.70 49.10 35.06 83.0 Not Reported 5.37 W 3.58 W 10.96 NW No 0.000 No Precipitation 01/13/2021 06:31 AM 01/13/2021 06:36 AM 0.000 0.000 0.028 0.039 0.039 Not Reported Not Reported
01/13/2021 12:23 PM 48.92 46.04 43.16 49.46 35.06 80.0 Not Reported 5.59 W 4.92 SE 8.50 W No 0.000 No Precipitation 01/13/2021 06:31 AM 01/13/2021 06:36 AM 0.000 0.000 0.020 0.039 0.039 Not Reported Not Reported
01/13/2021 12:41 PM 48.74 45.86 42.80 49.46 35.06 79.0 Not Reported 6.71 SW 2.68 W 8.95 W No 0.000 No Precipitation 01/13/2021 06:31 AM 01/13/2021 06:36 AM 0.000 0.000 0.020 0.039 0.039 Not Reported Not Reported
01/13/2021 12:53 PM 49.10 45.86 42.44 49.64 35.06 77.0 Not Reported 5.37 SW 2.68 W 7.61 SW No 0.000 No Precipitation 01/13/2021 06:31 AM 01/13/2021 06:36 AM 0.000 0.000 0.008 0.039 0.039 Not Reported Not Reported
01/13/2021 01:08 PM 49.64 46.04 42.44 49.82 35.06 76.0 Not Reported 3.36 SW 2.01 SW 6.49 S No 0.000 No Precipitation 01/13/2021 06:31 AM 01/13/2021 06:36 AM 0.000 0.000 0.004 0.039 0.039 Not Reported Not Reported
01/13/2021 01:23 PM 50.00 45.86 41.72 50.36 35.06 72.0 Not Reported 4.92 S 4.70 SW 9.17 S No 0.000 No Precipitation 01/13/2021 06:31 AM 01/13/2021 06:36 AM 0.000 0.000 0.004 0.039 0.039 Not Reported Not Reported
01/13/2021 01:38 PM 51.08 46.58 42.08 51.08 35.06 71.0 Not Reported 4.47 SW 3.80 W 8.72 SE No 0.000 No Precipitation 01/13/2021 06:31 AM 01/13/2021 06:36 AM 0.000 0.000 0.000 0.039 0.039 Not Reported Not Reported
01/13/2021 01:53 PM 50.54 46.04 41.36 51.08 35.06 70.0 Not Reported 5.37 W 7.16 SW 7.61 SW No 0.000 No Precipitation 01/13/2021 06:31 AM 01/13/2021 06:36 AM 0.000 0.000 0.000 0.039 0.039 Not Reported Not Reported
01/13/2021 02:08 PM 50.72 45.68 40.46 51.08 35.06 67.0 Not Reported 5.14 SW 5.14 SW 10.51 SW No 0.000 No Precipitation 01/13/2021 06:31 AM 01/13/2021 06:36 AM 0.000 0.000 0.000 0.039 0.039 Not Reported Not Reported
01/13/2021 02:24 PM 50.36 44.96 39.56 51.08 35.06 66.0 Not Reported 4.03 SW 6.26 SW 10.51 SW No 0.000 No Precipitation 01/13/2021 06:31 AM 01/13/2021 06:36 AM 0.000 0.000 0.000 0.039 0.039 Not Reported Not Reported
01/13/2021 02:39 PM 51.80 45.86 39.74 51.98 35.06 62.0 Not Reported 2.68 S 5.14 S 7.38 SW No 0.000 No Precipitation 01/13/2021 06:31 AM 01/13/2021 06:36 AM 0.000 0.000 0.000 0.039 0.039 Not Reported Not Reported
01/13/2021 02:53 PM 50.36 44.96 39.20 51.98 35.06 65.0 Not Reported 3.80 W 2.24 SW 7.61 SW No 0.000 No Precipitation 01/13/2021 06:31 AM 01/13/2021 06:36 AM 0.000 0.000 0.000 0.039 0.039 Not Reported Not Reported
01/13/2021 03:09 PM 50.18 44.96 38.84 51.98 35.06 65.0 Not Reported 4.03 SW 5.59 N 6.49 W No 0.000 No Precipitation 01/13/2021 06:31 AM 01/13/2021 06:36 AM 0.000 0.000 0.000 0.039 0.039 Not Reported Not Reported
01/13/2021 03:24 PM 48.20 43.88 38.30 51.98 35.06 68.0 Not Reported 2.91 SW 2.91 S 7.83 W No 0.000 No Precipitation 01/13/2021 06:31 AM 01/13/2021 06:36 AM 0.000 0.000 0.000 0.039 0.039 Not Reported Not Reported
01/13/2021 03:38 PM 47.12 42.98 38.30 51.98 35.06 71.0 Not Reported 2.46 S 4.03 NW 4.03 NW No 0.000 No Precipitation 01/13/2021 06:31 AM 01/13/2021 06:36 AM 0.000 0.000 0.000 0.035 0.039 Not Reported Not Reported
01/13/2021 03:53 PM 48.20 43.34 38.12 51.98 35.06 68.0 Not Reported 3.36 W 1.79 SW 6.04 SW No 0.000 No Precipitation 01/13/2021 06:31 AM 01/13/2021 06:36 AM 0.000 0.000 0.000 0.035 0.039 Not Reported Not Reported
01/13/2021 04:08 PM 42.62 40.10 36.86 51.98 35.06 79.0 Not Reported 1.57 SW 1.57 W 4.25 W No 0.000 No Precipitation 01/13/2021 06:31 AM 01/13/2021 06:36 AM 0.000 0.000 0.000 0.035 0.039 Not Reported Not Reported
01/13/2021 04:23 PM 39.56 37.58 35.24 51.98 35.06 84.0 Not Reported 2.46 W 4.25 SW 4.25 SW No 0.000 No Precipitation 01/13/2021 06:31 AM 01/13/2021 06:36 AM 0.000 0.000 0.000 0.035 0.039 Not Reported Not Reported
01/13/2021 04:39 PM 36.68 35.96 35.06 51.98 35.06 93.0 Not Reported 2.24 W 2.01 SW 3.13 W No 0.000 No Precipitation 01/13/2021 06:31 AM 01/13/2021 06:36 AM 0.000 0.000 0.000 0.035 0.039 Not Reported Not Reported
01/13/2021 04:53 PM 35.42 34.88 34.34 51.98 35.06 95.0 Not Reported 1.57 W 1.34 NW 2.24 W No 0.000 No Precipitation 01/13/2021 06:31 AM 01/13/2021 06:36 AM 0.000 0.000 0.000 0.035 0.039 Not Reported Not Reported
01/13/2021 05:08 PM 34.52 34.34 33.98 51.98 34.52 97.0 Not Reported 1.34 W 2.01 W 2.68 W No 0.000 No Precipitation 01/13/2021 06:31 AM 01/13/2021 06:36 AM 0.000 0.000 0.000 0.031 0.039 Not Reported Not Reported
01/13/2021 05:23 PM 34.34 34.16 33.98 51.98 34.16 98.0 Not Reported 1.12 NE 0.45 NE 1.57 NE No 0.000 No Precipitation 01/13/2021 06:31 AM 01/13/2021 06:36 AM 0.000 0.000 0.000 0.031 0.039 Not Reported Not Reported
01/13/2021 05:40 PM 34.34 34.52 33.98 51.98 33.80 99.0 Not Reported 0.67 NE 1.57 E 2.01 SE No 0.000 No Precipitation 01/13/2021 06:31 AM 01/13/2021 06:36 AM 0.000 0.000 0.000 0.031 0.039 Not Reported Not Reported
01/13/2021 05:53 PM 33.98 33.80 33.62 51.98 33.62 99.0 Not Reported 2.01 W 2.46 NW 3.13 NW No 0.000 No Precipitation 01/13/2021 06:31 AM 01/13/2021 06:36 AM 0.000 0.000 0.000 0.031 0.039 Not Reported Not Reported
01/13/2021 06:09 PM 33.44 33.44 33.26 51.98 33.44 99.0 Not Reported 0.00 N 0.00 SW 1.34 NW No 0.000 No Precipitation 01/13/2021 06:31 AM 01/13/2021 06:36 AM 0.000 0.000 0.000 0.028 0.039 Not Reported Not Reported
01/13/2021 06:23 PM 33.44 33.26 33.26 51.98 32.72 99.0 Not Reported 1.79 N 1.34 NW 2.24 N No 0.000 No Precipitation 01/13/2021 06:31 AM 01/13/2021 06:36 AM 0.000 0.000 0.000 0.020 0.039 Not Reported Not Reported
01/13/2021 06:38 PM 32.72 32.72 32.72 51.98 32.54 99.0 Not Reported 0.45 SW 1.57 S 1.57 S No 0.000 No Precipitation 01/13/2021 06:31 AM 01/13/2021 06:36 AM 0.000 0.000 0.000 0.020 0.039 Not Reported Not Reported
01/13/2021 06:53 PM 32.54 32.54 32.54 51.98 32.18 99.0 Not Reported 1.57 W 2.01 SW 2.91 SW No 0.000 No Precipitation 01/13/2021 06:31 AM 01/13/2021 06:36 AM 0.000 0.000 0.000 0.008 0.039 Not Reported Not Reported
01/13/2021 07:09 PM 32.72 32.54 32.54 51.98 32.00 99.0 Not Reported 1.57 SW 1.12 NW 4.03 S No 0.000 No Precipitation 01/13/2021 06:31 AM 01/13/2021 06:36 AM 0.000 0.000 0.000 0.004 0.039 Not Reported Not Reported
01/13/2021 07:25 PM 32.18 32.00 32.18 51.98 32.00 99.0 Not Reported 0.00 SE 0.45 SE 2.68 W No 0.000 No Precipitation 01/13/2021 06:31 AM 01/13/2021 06:36 AM 0.000 0.000 0.000 0.004 0.039 Not Reported Not Reported
01/13/2021 07:38 PM 31.82 31.82 31.82 51.98 31.64 99.0 Not Reported 0.22 W 0.89 W 2.91 NW No 0.000 No Precipitation 01/13/2021 06:31 AM 01/13/2021 06:36 AM 0.000 0.000 0.000 0.000 0.039 Not Reported Not Reported
01/13/2021 07:53 PM 31.46 31.46 31.46 51.98 31.28 99.0 Not Reported 0.45 SE 0.00 SE 2.24 W No 0.000 No Precipitation 01/13/2021 06:31 AM 01/13/2021 06:36 AM 0.000 0.000 0.000 0.000 0.039 Not Reported Not Reported
01/13/2021 08:08 PM 30.92 30.92 30.92 51.98 30.92 99.0 Not Reported 0.67 NW 0.22 W 1.12 NW No 0.000 No Precipitation 01/13/2021 06:31 AM 01/13/2021 06:36 AM 0.000 0.000 0.000 0.000 0.039 Not Reported Not Reported
01/13/2021 08:23 PM 30.56 30.56 30.56 51.98 30.38 99.0 Not Reported 0.00 N 0.00 NW 1.57 NW No 0.000 No Precipitation 01/13/2021 06:31 AM 01/13/2021 06:36 AM 0.000 0.000 0.000 0.000 0.039 Not Reported Not Reported
01/13/2021 08:38 PM 30.38 30.38 30.38 51.98 30.38 99.0 Not Reported 0.00 N 0.67 N 0.67 N No 0.000 No Precipitation 01/13/2021 06:31 AM 01/13/2021 06:36 AM 0.000 0.000 0.000 0.000 0.039 Not Reported Not Reported
01/13/2021 08:53 PM 30.20 30.20 30.20 51.98 30.20 99.0 Not Reported 0.00 N 0.00 SW 1.12 W No 0.000 No Precipitation 01/13/2021 06:31 AM 01/13/2021 06:36 AM 0.000 0.000 0.000 0.000 0.039 Not Reported Not Reported
01/13/2021 09:09 PM 30.20 30.20 30.20 51.98 29.84 99.0 Not Reported 0.00 N 0.00 W 2.24 N No 0.000 No Precipitation 01/13/2021 06:31 AM 01/13/2021 06:36 AM 0.000 0.000 0.000 0.000 0.039 Not Reported Not Reported
01/13/2021 09:25 PM 29.48 29.48 29.48 51.98 29.48 99.0 Not Reported 0.00 N 0.00 N 0.22 N No 0.000 No Precipitation 01/13/2021 06:31 AM 01/13/2021 06:36 AM 0.000 0.000 0.000 0.000 0.039 Not Reported Not Reported
01/13/2021 09:38 PM 29.30 29.30 29.30 51.98 29.30 99.0 Not Reported 1.34 NW 1.12 N 1.57 NW No 0.000 No Precipitation 01/13/2021 06:31 AM 01/13/2021 06:36 AM 0.000 0.000 0.000 0.000 0.039 Not Reported Not Reported
01/13/2021 09:53 PM 29.48 29.48 29.48 51.98 29.30 99.0 Not Reported 0.22 N 0.45 NW 0.89 N No 0.000 No Precipitation 01/13/2021 06:31 AM 01/13/2021 06:36 AM 0.000 0.000 0.000 0.000 0.039 Not Reported Not Reported
01/13/2021 10:08 PM 29.30 29.30 29.30 51.98 29.30 99.0 Not Reported 0.00 S 0.00 S 1.34 W No 0.000 No Precipitation 01/13/2021 06:31 AM 01/13/2021 06:36 AM 0.000 0.000 0.000 0.000 0.039 Not Reported Not Reported
01/13/2021 10:23 PM 29.12 28.94 28.94 51.98 28.94 99.0 Not Reported 0.00 N 0.00 S 0.22 S No 0.000 No Precipitation 01/13/2021 06:31 AM 01/13/2021 06:36 AM 0.000 0.000 0.000 0.000 0.039 Not Reported Not Reported
01/13/2021 10:38 PM 28.94 28.94 28.76 51.98 28.94 99.0 Not Reported 0.00 N 0.00 NW 0.22 E No 0.000 No Precipitation 01/13/2021 06:31 AM 01/13/2021 06:36 AM 0.000 0.000 0.000 0.000 0.039 Not Reported Not Reported
01/13/2021 10:55 PM 28.94 28.94 28.94 51.98 28.58 99.0 Not Reported 1.12 N 0.45 NE 1.57 N No 0.000 No Precipitation 01/13/2021 06:31 AM 01/13/2021 06:36 AM 0.000 0.000 0.000 0.000 0.039 Not Reported Not Reported
01/13/2021 11:09 PM 28.94 28.94 28.94 51.98 28.58 99.0 Not Reported 0.22 N 0.00 NW 1.57 NW No 0.000 No Precipitation 01/13/2021 06:31 AM 01/13/2021 06:36 AM 0.000 0.000 0.000 0.000 0.039 Not Reported Not Reported
01/13/2021 11:23 PM 28.76 28.76 28.76 51.98 28.58 99.0 Not Reported 0.45 NW 0.22 NW 1.34 NW No 0.000 No Precipitation 01/13/2021 06:31 AM 01/13/2021 06:36 AM 0.000 0.000 0.000 0.000 0.039 Not Reported Not Reported
01/13/2021 11:38 PM 28.76 28.76 28.76 51.98 28.58 99.0 Not Reported 0.22 NW 0.67 NW 0.67 NW No 0.000 No Precipitation 01/13/2021 06:31 AM 01/13/2021 06:36 AM 0.000 0.000 0.000 0.000 0.039 Not Reported Not Reported
01/13/2021 11:53 PM 28.94 28.94 28.94 51.98 28.58 99.0 Not Reported 0.22 W 0.89 NW 0.89 NW No 0.000 No Precipitation 01/13/2021 06:31 AM 01/13/2021 06:36 AM 0.000 0.000 0.000 0.000 0.039 Not Reported Not Reported